createdAt,value
2023-03-05T00:02:21.496Z,0.85
2023-03-05T00:04:47.882Z,1.02
2023-03-05T00:07:14.318Z,0.73
2023-03-05T00:09:41.037Z,0.77
2023-03-05T00:12:07.987Z,0.65
2023-03-05T00:14:34.516Z,1.00
2023-03-05T00:17:00.954Z,0.65
2023-03-05T00:19:27.405Z,1.15
2023-03-05T00:21:53.865Z,1.05
2023-03-05T00:24:20.273Z,0.82
2023-03-05T00:26:47.274Z,1.10
2023-03-05T00:29:19.085Z,0.77
2023-03-05T00:31:46.219Z,0.90
2023-03-05T00:34:15.299Z,1.10
2023-03-05T00:36:44.147Z,0.68
2023-03-05T00:39:12.286Z,0.60
2023-03-05T00:41:38.905Z,0.70
2023-03-05T00:44:05.724Z,0.93
2023-03-05T00:46:32.470Z,0.60
2023-03-05T00:48:58.948Z,0.82
2023-03-05T00:51:26.044Z,0.90
2023-03-05T00:53:52.554Z,0.93
2023-03-05T00:56:19.122Z,1.50
2023-03-05T00:58:45.712Z,1.65
2023-03-05T01:01:12.527Z,2.13
2023-03-05T01:03:39.152Z,1.48
2023-03-05T01:06:08.726Z,1.33
2023-03-05T01:08:36.214Z,1.23
2023-03-05T01:11:03.483Z,1.23
2023-03-05T01:13:29.935Z,1.45
2023-03-05T01:15:56.356Z,1.08
2023-03-05T01:18:22.846Z,0.95
2023-03-05T01:20:49.384Z,1.20
2023-03-05T01:23:16.276Z,1.30
2023-03-05T01:25:42.913Z,1.55
2023-03-05T01:28:09.457Z,1.00
2023-03-05T01:33:02.290Z,0.68
2023-03-05T01:35:29.511Z,0.63
2023-03-05T01:37:56.218Z,0.40
2023-03-05T01:40:28.255Z,0.95
2023-03-05T01:43:22.092Z,0.63
2023-03-05T01:46:21.622Z,0.95
2023-03-05T01:48:54.440Z,0.73
2023-03-05T01:51:25.341Z,0.65
2023-03-05T01:53:53.449Z,0.60
2023-03-05T01:56:20.453Z,0.95
2023-03-05T01:58:47.037Z,0.57
2023-03-05T02:01:13.620Z,0.60
2023-03-05T02:03:41.684Z,0.70
2023-03-05T02:06:08.456Z,0.45
2023-03-05T02:08:34.918Z,0.80
2023-03-05T02:11:02.076Z,0.77
2023-03-05T02:13:35.657Z,0.47
2023-03-05T02:16:02.716Z,0.50
2023-03-05T02:18:29.300Z,0.45
2023-03-05T02:20:55.988Z,0.57
2023-03-05T02:23:24.971Z,0.40
2023-03-05T02:25:52.430Z,0.57
2023-03-05T02:28:28.325Z,0.60
2023-03-05T02:30:54.863Z,0.63
2023-03-05T02:33:21.360Z,0.55
2023-03-05T02:35:47.764Z,0.60
2023-03-05T02:38:18.037Z,0.88
2023-03-05T02:40:44.664Z,0.50
2023-03-05T02:43:11.810Z,0.60
2023-03-05T02:45:38.630Z,0.52
2023-03-05T02:48:05.286Z,0.57
2023-03-05T02:50:32.052Z,0.80
2023-03-05T02:52:58.498Z,0.60
2023-03-05T02:55:24.966Z,0.75
2023-03-05T02:57:51.528Z,0.45
2023-03-05T03:00:18.220Z,0.60
2023-03-05T03:02:44.638Z,0.50
2023-03-05T03:05:11.094Z,0.50
2023-03-05T03:07:37.527Z,1.13
2023-03-05T03:10:05.517Z,0.57
2023-03-05T03:12:31.980Z,0.55
2023-03-05T03:15:00.871Z,0.35
2023-03-05T03:17:27.377Z,1.40
2023-03-05T03:19:53.794Z,0.50
2023-03-05T03:22:20.187Z,0.57
2023-03-05T03:24:46.668Z,0.50
2023-03-05T03:27:13.161Z,0.63
2023-03-05T03:29:39.599Z,0.70
2023-03-05T03:32:06.322Z,0.55
2023-03-05T03:34:32.780Z,0.45
2023-03-05T03:36:59.213Z,0.45
2023-03-05T03:39:25.905Z,0.85
2023-03-05T03:41:53.465Z,0.98
2023-03-05T03:44:21.651Z,0.40
2023-03-05T03:46:49.474Z,0.52
2023-03-05T03:49:24.886Z,0.40
2023-03-05T03:51:54.356Z,0.60
2023-03-05T03:54:22.116Z,0.40
2023-03-05T03:56:48.623Z,0.57
2023-03-05T03:59:15.175Z,0.70
2023-03-05T04:01:41.768Z,0.63
2023-03-05T04:04:08.859Z,0.50
2023-03-05T04:06:35.512Z,0.50
2023-03-05T04:09:01.997Z,0.63
2023-03-05T04:11:28.453Z,0.50
2023-03-05T04:13:54.851Z,0.57
2023-03-05T04:16:21.484Z,0.70
2023-03-05T04:18:48.018Z,0.70
2023-03-05T04:21:14.483Z,0.45
2023-03-05T04:23:41.481Z,0.50
2023-03-05T04:26:07.972Z,0.30
2023-03-05T04:28:34.581Z,0.80
2023-03-05T04:31:01.247Z,0.40
2023-03-05T04:33:27.934Z,0.50
2023-03-05T04:35:54.724Z,0.50
2023-03-05T04:38:21.363Z,0.63
2023-03-05T04:40:48.028Z,0.50
2023-03-05T04:43:14.608Z,0.40
2023-03-05T04:45:43.293Z,0.85
2023-03-05T04:48:11.071Z,0.60
2023-03-05T04:50:37.910Z,0.40
2023-03-05T04:53:04.840Z,0.40
2023-03-05T04:55:31.426Z,0.40
2023-03-05T04:57:58.262Z,0.30
2023-03-05T05:00:25.202Z,0.20
2023-03-05T05:02:52.462Z,0.30
2023-03-05T05:05:24.871Z,0.40
2023-03-05T05:07:56.287Z,0.40
2023-03-05T05:10:23.943Z,0.30
2023-03-05T05:12:50.748Z,0.47
2023-03-05T05:15:17.296Z,0.28
2023-03-05T05:17:43.814Z,0.30
2023-03-05T05:20:12.453Z,0.30
2023-03-05T05:22:39.096Z,0.30
2023-03-05T05:25:05.927Z,0.40
2023-03-05T05:27:32.531Z,0.38
2023-03-05T05:29:59.246Z,0.40
2023-03-05T05:32:25.840Z,0.60
2023-03-05T05:34:55.976Z,1.00
2023-03-05T05:37:22.937Z,0.57
2023-03-05T05:39:50.443Z,0.55
2023-03-05T05:42:22.941Z,0.60
2023-03-05T05:44:49.797Z,0.65
2023-03-05T05:47:17.846Z,0.50
2023-03-05T05:49:44.346Z,0.75
2023-03-05T05:52:10.911Z,0.70
2023-03-05T05:54:37.386Z,0.68
2023-03-05T05:57:03.991Z,0.45
2023-03-05T05:59:30.388Z,1.27
2023-03-05T06:01:57.072Z,0.70
2023-03-05T06:04:23.623Z,0.45
2023-03-05T06:06:50.201Z,0.40
2023-03-05T06:09:16.807Z,0.47
2023-03-05T06:11:43.323Z,0.73
2023-03-05T06:14:11.776Z,0.47
2023-03-05T06:16:39.135Z,0.63
2023-03-05T06:19:05.729Z,0.45
2023-03-05T06:21:32.967Z,0.68
2023-03-05T06:23:59.492Z,0.98
2023-03-05T06:26:26.160Z,0.60
2023-03-05T06:28:53.260Z,0.52
2023-03-05T06:31:23.075Z,0.95
2023-03-05T06:33:50.194Z,0.47
2023-03-05T06:36:18.753Z,0.70
2023-03-05T06:38:45.301Z,0.70
2023-03-05T06:41:14.756Z,0.80
2023-03-05T06:43:43.153Z,0.60
2023-03-05T06:46:30.643Z,0.50
2023-03-05T06:48:59.675Z,0.82
2023-03-05T06:51:31.545Z,1.58
2023-03-05T06:54:04.015Z,0.75
2023-03-05T06:56:30.567Z,0.90
2023-03-05T06:58:57.350Z,1.02
2023-03-05T07:01:24.256Z,0.57
2023-03-05T07:03:52.884Z,0.52
2023-03-05T07:06:20.607Z,0.57
2023-03-05T07:08:47.448Z,0.60
2023-03-05T07:11:16.675Z,0.65
2023-03-05T07:13:43.873Z,0.90
2023-03-05T07:16:15.708Z,0.60
2023-03-05T07:18:42.548Z,0.50
2023-03-05T07:21:09.702Z,0.60
2023-03-05T07:23:36.712Z,0.65
2023-03-05T07:26:07.100Z,1.02
2023-03-05T07:28:34.554Z,0.82
2023-03-05T07:31:07.169Z,0.73
2023-03-05T07:33:35.261Z,0.77
2023-03-05T07:36:01.914Z,0.70
2023-03-05T07:38:28.386Z,0.60
2023-03-05T07:40:54.874Z,0.70
2023-03-05T07:43:21.343Z,0.65
2023-03-05T07:45:47.888Z,0.80
2023-03-05T07:48:17.418Z,0.70
2023-03-05T07:50:44.283Z,0.98
2023-03-05T07:53:10.743Z,1.60
2023-03-05T07:55:42.975Z,0.45
2023-03-05T07:58:09.503Z,0.90
2023-03-05T08:00:36.065Z,0.50
2023-03-05T08:03:02.571Z,0.57
2023-03-05T08:05:29.075Z,0.70
2023-03-05T08:07:55.488Z,0.90
2023-03-05T08:10:22.057Z,0.90
2023-03-05T08:12:48.586Z,0.73
2023-03-05T08:15:15.061Z,0.50
2023-03-05T08:17:41.432Z,0.60
2023-03-05T08:20:11.275Z,0.75
2023-03-05T08:22:38.156Z,0.45
2023-03-05T08:25:05.771Z,0.45
2023-03-05T08:27:32.390Z,0.60
2023-03-05T08:29:58.994Z,0.52
2023-03-05T08:32:25.547Z,0.70
2023-03-05T08:34:57.231Z,0.70
2023-03-05T08:37:23.886Z,0.57
2023-03-05T08:39:50.343Z,0.50
2023-03-05T08:42:16.856Z,0.60
2023-03-05T08:44:43.274Z,0.73
2023-03-05T08:47:09.760Z,0.50
2023-03-05T08:49:37.329Z,0.70
2023-03-05T08:52:03.918Z,0.47
2023-03-05T08:54:30.551Z,0.50
2023-03-05T08:56:56.984Z,0.47
2023-03-05T08:59:23.501Z,0.60
2023-03-05T09:01:50.099Z,0.55
2023-03-05T09:04:16.862Z,0.50
2023-03-05T09:06:43.294Z,0.60
2023-03-05T09:09:10.089Z,0.50
2023-03-05T09:11:37.170Z,0.20
2023-03-05T09:14:04.649Z,0.60
2023-03-05T09:16:31.669Z,0.32
2023-03-05T09:18:59.144Z,1.05
2023-03-05T09:21:26.206Z,0.50
2023-03-05T09:23:52.674Z,0.52
2023-03-05T09:26:20.105Z,1.35
2023-03-05T09:28:48.188Z,0.30
2023-03-05T09:31:14.759Z,0.90
2023-03-05T09:33:41.298Z,0.70
2023-03-05T09:36:22.214Z,0.63
2023-03-05T09:38:48.939Z,0.98
2023-03-05T09:41:17.359Z,0.65
2023-03-05T09:43:55.186Z,0.43
2023-03-05T09:46:40.863Z,0.88
2023-03-05T09:49:29.426Z,0.55
2023-03-05T09:52:03.378Z,0.60
2023-03-05T09:54:38.660Z,0.40
2023-03-05T09:57:14.447Z,0.35
2023-03-05T09:59:50.008Z,0.55
2023-03-05T10:02:26.001Z,0.90
2023-03-05T10:04:58.410Z,0.43
2023-03-05T10:07:30.265Z,0.60
2023-03-05T10:10:09.832Z,0.38
2023-03-05T10:12:43.009Z,0.50
2023-03-05T10:15:37.457Z,0.57
2023-03-05T10:18:37.031Z,0.37
2023-03-05T10:21:30.695Z,0.50
2023-03-05T10:24:16.519Z,0.50
2023-03-05T10:26:49.044Z,0.60
2023-03-05T10:29:37.644Z,0.50
2023-03-05T10:32:39.268Z,0.30
2023-03-05T10:35:23.813Z,0.43
2023-03-05T10:38:12.769Z,0.88
2023-03-05T10:40:48.494Z,0.50
2023-03-05T10:43:48.171Z,0.73
2023-03-05T10:46:20.394Z,0.40
2023-03-05T10:48:55.479Z,0.50
2023-03-05T10:51:37.977Z,0.55
2023-03-05T10:54:41.730Z,0.50
2023-03-05T10:57:23.546Z,0.60
2023-03-05T10:59:57.369Z,0.70
2023-03-05T11:02:24.527Z,0.60
2023-03-05T11:04:52.676Z,0.40
2023-03-05T11:07:19.068Z,0.65
2023-03-05T11:10:01.895Z,0.40
2023-03-05T11:12:30.383Z,0.52
2023-03-05T11:15:09.261Z,0.63
2023-03-05T11:17:38.136Z,0.50
2023-03-05T11:20:37.061Z,0.60
2023-03-05T11:23:18.916Z,0.73
2023-03-05T11:26:01.210Z,0.30
2023-03-05T11:28:39.746Z,0.52
2023-03-05T11:31:07.480Z,1.00
2023-03-05T11:33:36.737Z,0.52
2023-03-05T11:36:22.697Z,0.50
2023-03-05T11:38:56.582Z,0.50
2023-03-05T11:41:34.162Z,0.60
2023-03-05T11:44:03.781Z,0.50
2023-03-05T11:46:37.244Z,0.60
2023-03-05T11:49:05.724Z,0.75
2023-03-05T11:51:45.759Z,0.57
2023-03-05T11:54:21.088Z,0.70
2023-03-05T11:56:47.586Z,0.43
2023-03-05T11:59:19.024Z,0.52
2023-03-05T12:01:49.156Z,0.40
2023-03-05T12:04:17.206Z,0.68
2023-03-05T12:06:54.574Z,2.38
2023-03-05T12:09:49.438Z,0.82
2023-03-05T12:12:21.758Z,0.50
2023-03-05T12:15:00.287Z,0.30
2023-03-05T12:17:45.016Z,0.25
2023-03-05T12:20:18.469Z,0.38
2023-03-05T12:22:45.635Z,0.60
2023-03-05T12:25:33.553Z,0.43
2023-03-05T12:28:01.375Z,0.35
2023-03-05T12:30:33.909Z,0.35
2023-03-05T12:33:04.846Z,0.60
2023-03-05T12:35:36.925Z,0.40
2023-03-05T12:38:30.996Z,0.45
2023-03-05T12:41:37.061Z,0.52
2023-03-05T12:44:06.281Z,0.30
2023-03-05T12:46:40.501Z,0.60
2023-03-05T12:49:19.217Z,1.10
2023-03-05T12:51:50.841Z,0.90
2023-03-05T12:54:35.348Z,0.60
2023-03-05T12:57:17.314Z,0.75
2023-03-05T12:59:50.041Z,0.50
2023-03-05T13:02:23.374Z,0.40
2023-03-05T13:04:53.083Z,0.60
2023-03-05T13:07:19.535Z,0.52
2023-03-05T13:09:58.445Z,0.20
2023-03-05T13:12:27.757Z,0.20
2023-03-05T13:15:13.569Z,0.52
2023-03-05T13:17:55.648Z,0.40
2023-03-05T13:20:31.496Z,0.40
2023-03-05T13:23:22.296Z,0.50
2023-03-05T13:26:02.404Z,0.30
2023-03-05T13:28:30.830Z,0.43
2023-03-05T13:31:00.447Z,0.30
2023-03-05T13:33:33.291Z,0.30
2023-03-05T13:36:00.245Z,0.20
2023-03-05T13:38:45.289Z,0.43
2023-03-05T13:41:11.677Z,0.30
2023-03-05T13:43:45.897Z,0.60
2023-03-05T13:46:12.500Z,0.30
2023-03-05T13:48:39.179Z,0.55
2023-03-05T13:51:09.571Z,0.43
2023-03-05T13:53:36.085Z,0.40
2023-03-05T13:56:05.774Z,0.30
2023-03-05T13:58:55.010Z,0.45
2023-03-05T14:01:41.836Z,0.30
2023-03-05T14:04:19.877Z,0.40
2023-03-05T14:06:50.992Z,0.35
2023-03-05T14:09:26.819Z,0.30
2023-03-05T14:12:02.529Z,0.40
2023-03-05T14:14:32.412Z,0.43
2023-03-05T14:17:27.849Z,0.43
2023-03-05T14:20:30.292Z,0.40
2023-03-05T14:22:59.742Z,0.40
2023-03-05T14:25:34.006Z,0.50
2023-03-05T14:28:07.950Z,0.30
2023-03-05T14:30:36.240Z,0.40
2023-03-05T14:33:03.442Z,0.70
2023-03-05T14:35:30.007Z,0.47
2023-03-05T14:37:59.197Z,0.40
2023-03-05T14:40:36.057Z,0.60
2023-03-05T14:43:06.862Z,0.57
2023-03-05T14:45:36.071Z,0.93
2023-03-05T14:48:05.585Z,0.60
2023-03-05T14:50:35.334Z,0.50
2023-03-05T14:53:07.200Z,0.30
2023-03-05T14:55:35.694Z,0.47
2023-03-05T14:58:12.591Z,0.50
2023-03-05T15:00:39.045Z,0.70
2023-03-05T15:03:05.568Z,0.40
2023-03-05T15:05:32.280Z,0.70
2023-03-05T15:07:59.061Z,0.45
2023-03-05T15:10:26.099Z,0.60
2023-03-05T15:12:53.397Z,0.40
2023-03-05T15:15:21.544Z,0.45
2023-03-05T15:17:51.778Z,0.40
2023-03-05T15:20:24.118Z,0.50
2023-03-05T15:22:50.583Z,0.57
2023-03-05T15:25:18.183Z,0.70
2023-03-05T15:27:45.458Z,0.25
2023-03-05T15:30:22.128Z,0.93
2023-03-05T15:32:49.300Z,0.60
2023-03-05T15:35:15.812Z,0.50
2023-03-05T15:37:42.259Z,0.80
2023-03-05T15:40:09.387Z,0.52
2023-03-05T15:42:35.817Z,0.40
2023-03-05T15:45:02.305Z,0.50
2023-03-05T15:47:29.121Z,0.50
2023-03-05T15:49:56.661Z,0.77
2023-03-05T15:52:23.275Z,0.70
2023-03-05T15:54:49.657Z,0.70
2023-03-05T15:57:17.126Z,0.80
2023-03-05T15:59:43.673Z,0.80
2023-03-05T16:02:10.067Z,0.40
2023-03-05T16:04:36.527Z,0.50
2023-03-05T16:07:03.969Z,0.80
2023-03-05T16:09:35.727Z,0.57
2023-03-05T16:12:04.430Z,0.90
2023-03-05T16:14:32.054Z,0.90
2023-03-05T16:17:01.193Z,0.30
2023-03-05T16:19:27.863Z,0.40
2023-03-05T16:21:54.311Z,0.50
2023-03-05T16:24:20.753Z,1.08
2023-03-05T16:26:47.531Z,0.40
2023-03-05T16:29:14.222Z,0.52
2023-03-05T16:31:43.112Z,0.40
2023-03-05T16:34:10.268Z,0.30
2023-03-05T16:36:36.742Z,0.40
2023-03-05T16:39:04.864Z,0.52
2023-03-05T16:41:31.735Z,0.47
2023-03-05T16:43:58.343Z,0.50
2023-03-05T16:46:27.419Z,0.50
2023-03-05T16:48:54.121Z,0.47
2023-03-05T16:51:21.399Z,0.60
2023-03-05T16:53:47.888Z,0.50
2023-03-05T16:56:14.612Z,0.65
2023-03-05T16:58:41.040Z,0.65
2023-03-05T17:01:14.277Z,0.85
2023-03-05T17:03:41.678Z,0.68
2023-03-05T17:06:10.374Z,0.50
2023-03-05T17:08:36.921Z,0.28
2023-03-05T17:11:03.486Z,0.57
2023-03-05T17:13:29.878Z,0.75
2023-03-05T17:15:57.528Z,0.50
2023-03-05T17:18:24.220Z,0.50
2023-03-05T17:20:50.656Z,0.50
2023-03-05T17:23:17.088Z,0.88
2023-03-05T17:25:43.450Z,0.55
2023-03-05T17:28:10.555Z,1.38
2023-03-05T17:30:37.308Z,0.80
2023-03-05T17:33:04.678Z,0.60
2023-03-05T17:35:31.305Z,0.60
2023-03-05T17:37:58.170Z,1.02
2023-03-05T17:40:25.319Z,1.05
2023-03-05T17:42:51.713Z,0.90
2023-03-05T17:45:18.164Z,0.68
2023-03-05T17:47:44.647Z,0.63
2023-03-05T17:50:12.704Z,0.60
2023-03-05T17:52:41.136Z,0.77
2023-03-05T17:55:10.803Z,1.10
2023-03-05T17:57:41.389Z,1.42
2023-03-05T18:00:19.408Z,1.75
2023-03-05T18:02:46.176Z,2.10
2023-03-05T18:05:13.165Z,2.47
2023-03-05T18:07:39.679Z,4.28
2023-03-05T18:10:07.591Z,4.22
2023-03-05T18:12:34.135Z,3.15
2023-03-05T18:15:00.550Z,2.40
2023-03-05T18:17:26.992Z,1.50
2023-03-05T18:19:53.791Z,1.40
2023-03-05T18:22:20.256Z,0.82
2023-03-05T18:24:46.639Z,0.77
2023-03-05T18:27:13.067Z,0.90
2023-03-05T18:29:39.662Z,0.93
2023-03-05T18:32:06.212Z,0.90
2023-03-05T18:34:32.649Z,1.27
2023-03-05T18:37:00.692Z,1.20
2023-03-05T18:39:29.218Z,0.82
2023-03-05T18:41:56.207Z,0.75
2023-03-05T18:44:22.580Z,0.73
2023-03-05T18:46:49.003Z,0.70
2023-03-05T18:49:15.413Z,0.65
2023-03-05T18:51:42.458Z,0.80
2023-03-05T18:54:09.963Z,0.80
2023-03-05T18:56:36.393Z,0.98
2023-03-05T18:59:02.831Z,0.80
2023-03-05T19:01:29.446Z,0.90
2023-03-05T19:03:55.972Z,0.73
2023-03-05T19:06:22.950Z,0.70
2023-03-05T19:08:56.847Z,0.80
2023-03-05T19:11:23.499Z,1.40
2023-03-05T19:13:51.038Z,0.70
2023-03-05T19:16:19.474Z,1.25
2023-03-05T19:19:11.203Z,1.30
2023-03-05T19:21:37.602Z,1.80
2023-03-05T19:24:04.122Z,2.22
2023-03-05T19:26:30.621Z,2.80
2023-03-05T19:28:57.259Z,2.65
2023-03-05T19:31:23.808Z,2.45
2023-03-05T19:33:50.249Z,1.73
2023-03-05T19:36:16.898Z,1.70
2023-03-05T19:38:43.405Z,1.60
2023-03-05T19:41:10.633Z,1.42
2023-03-05T19:43:37.664Z,0.80
2023-03-05T19:46:06.442Z,0.70
2023-03-05T19:48:34.695Z,0.65
2023-03-05T19:51:01.335Z,0.63
2023-03-05T19:53:27.724Z,0.55
2023-03-05T19:55:54.078Z,0.60
2023-03-05T19:58:20.621Z,0.60
2023-03-05T20:00:47.319Z,0.43
2023-03-05T20:03:13.734Z,0.50
2023-03-05T20:05:41.837Z,0.40
2023-03-05T20:08:08.303Z,0.40
2023-03-05T20:10:34.911Z,0.30
2023-03-05T20:13:01.889Z,0.40
2023-03-05T20:15:29.212Z,0.50
2023-03-05T20:17:58.525Z,0.30
2023-03-05T20:20:25.119Z,0.40
2023-03-05T20:22:51.761Z,0.40
2023-03-05T20:25:24.626Z,0.38
2023-03-05T20:27:51.914Z,0.30
2023-03-05T20:30:18.803Z,0.90
2023-03-05T20:32:45.475Z,0.63
2023-03-05T20:35:17.205Z,0.60
2023-03-05T20:37:59.972Z,0.52
2023-03-05T20:40:27.082Z,0.50
2023-03-05T20:42:53.504Z,0.50
2023-03-05T20:45:19.938Z,0.70
2023-03-05T20:47:46.639Z,0.70
2023-03-05T20:50:17.606Z,0.60
2023-03-05T20:52:44.206Z,0.95
2023-03-05T20:55:12.149Z,0.73
2023-03-05T20:57:39.125Z,1.27
2023-03-05T21:00:07.822Z,2.15
2023-03-05T21:02:34.326Z,3.13
2023-03-05T21:05:00.690Z,2.30
2023-03-05T21:07:29.393Z,2.30
2023-03-05T21:09:55.906Z,1.58
2023-03-05T21:12:22.358Z,1.52
2023-03-05T21:14:48.846Z,1.00
2023-03-05T21:17:15.437Z,1.02
2023-03-05T21:19:41.883Z,0.90
2023-03-05T21:22:08.253Z,0.82
2023-03-05T21:24:49.853Z,0.90
2023-03-05T21:27:16.283Z,0.75
2023-03-05T21:29:42.687Z,1.40
2023-03-05T21:32:09.132Z,1.20
2023-03-05T21:34:35.800Z,1.00
2023-03-05T21:37:02.258Z,1.95
2023-03-05T21:39:28.864Z,2.20
2023-03-05T21:41:55.290Z,1.58
2023-03-05T21:44:21.782Z,1.65
2023-03-05T21:46:48.462Z,1.42
2023-03-05T21:49:14.941Z,1.15
2023-03-05T21:51:53.086Z,1.25
2023-03-05T21:54:19.483Z,1.60
2023-03-05T21:56:46.612Z,1.40
2023-03-05T21:59:13.099Z,1.85
2023-03-05T22:01:39.507Z,2.03
2023-03-05T22:04:05.947Z,2.10
2023-03-05T22:06:32.456Z,2.67
2023-03-05T22:08:58.859Z,3.03
2023-03-05T22:11:25.309Z,2.53
2023-03-05T22:13:51.722Z,3.28
2023-03-05T22:16:26.028Z,2.40
2023-03-05T22:18:53.112Z,2.38
2023-03-05T22:21:26.788Z,2.58
2023-03-05T22:23:56.904Z,1.57
2023-03-05T22:26:25.068Z,2.42
2023-03-05T22:28:52.077Z,2.28
2023-03-05T22:31:26.996Z,2.35
2023-03-05T22:33:53.888Z,2.40
2023-03-05T22:36:20.909Z,2.65
2023-03-05T22:38:47.358Z,2.20
2023-03-05T22:41:16.355Z,2.50
2023-03-05T22:43:43.040Z,2.55
2023-03-05T22:46:15.187Z,2.30
2023-03-05T22:48:42.058Z,2.42
2023-03-05T22:51:09.769Z,2.88
2023-03-05T22:53:36.406Z,2.10
2023-03-05T22:56:14.934Z,1.95
2023-03-05T22:58:42.162Z,1.60
2023-03-05T23:01:23.240Z,1.80
2023-03-05T23:03:54.911Z,1.40
2023-03-05T23:06:21.460Z,1.45
2023-03-05T23:08:47.871Z,1.45
2023-03-05T23:11:14.330Z,1.13
2023-03-05T23:13:41.277Z,1.98
2023-03-05T23:16:08.193Z,2.42
2023-03-05T23:18:34.997Z,2.92
2023-03-05T23:21:01.399Z,2.70
2023-03-05T23:23:27.792Z,3.05
2023-03-05T23:25:54.263Z,2.08
2023-03-05T23:28:20.724Z,2.20
2023-03-05T23:30:47.244Z,1.83
2023-03-05T23:33:16.363Z,1.50
2023-03-05T23:35:50.368Z,1.08
2023-03-05T23:38:17.194Z,0.90
2023-03-05T23:40:47.021Z,1.00
2023-03-05T23:43:14.798Z,1.08
2023-03-05T23:45:43.290Z,0.90
2023-03-05T23:48:10.364Z,0.90
2023-03-05T23:50:40.749Z,0.80
2023-03-05T23:53:07.640Z,1.20
2023-03-05T23:55:42.428Z,1.40
2023-03-05T23:58:09.795Z,0.90
